Terminal Aerodrome Forecast
Issued by NWS Birmingham, AL

Home | Current Version | Previous Version | Text Only | Print | Product List | Glossary On
Versions: 1 2 3 4 5 6 7 8 9 10 11 12 13 14 15 16
000
FTUS44 KBMX 191700
TAFBHM
TAF
KBHM 191724Z 1918/2018 02005KT P6SM BKN120
     FM200200 02003KT 6SM -RA OVC050
     FM200600 02003KT 5SM -RA OVC035
     FM201200 02003KT P6SM OVC035=

USA.gov is the U.S. government's official web portal to all federal, state and local government web resources and services.